Navarre, Florida
Current Conditions -  °F | °C
As of 12:56 PM on Monday 20 Oct 2014 (Local Time) from KQHY Reporting Station
Few Clouds Few Clouds  
Wind Chill: 75°   Ceiling: Unl
Heat Index: 75°   Visibility: 10mi
Dew Point: 63°   Wind: 5mph
Humidity: 65%   Direction: 190°S
Pressure: 30.05"   Gusts: NA
Location:  30.4°N, 86.86°W
Report Text: KQHY 201756Z AUTO 19004KT 10SM FEW250 24/17 A3005 RMK AO2 SLP182 T02410172 10241 20129 57012 $
Loading
Personal Weather Stations






























Interactive Weather Map
Tropical Storm Tracking
New forecast layout! Learn more

10-Day Weather Forecast

Advertisements
Track Severe Weather on mobile